Time;durP1;ratioP1;P1;durP2;ratioP2;P2;SDS_P1;SDS_P2;PMS_P1;PMS_P2;Temp;Humidity;BMP_temperature;BMP_pressure;BME280_temperature;BME280_humidity;BME280_pressure;Samples;Min_cycle;Max_cycle;Signal;HPM_P1;HPM_P2
2022/12/16 00:01:22;;;;;;;;;;;10.20;92.00;;;;;;5033630;28;20136;-65
2022/12/16 00:03:49;;;;;;;15.93;10.57;;;10.30;93.20;;;;;;5033869;28;20051;-66
2022/12/16 00:06:15;;;;;;;17.25;10.70;;;;;;;;;;5034288;28;20045;-65
2022/12/16 00:08:41;;;;;;;17.15;11.35;;;10.30;93.10;;;;;;5047929;28;20403;-66
2022/12/16 00:11:07;;;;;;;16.88;11.18;;;10.20;93.00;;;;;;5072583;28;20048;-66
2022/12/16 00:13:33;;;;;;;14.65;10.73;;;10.50;93.20;;;;;;5073376;28;20044;-65
2022/12/16 00:15:59;;;;;;;16.23;11.15;;;10.30;93.20;;;;;;5065918;28;20045;-66
2022/12/16 00:18:25;;;;;;;19.20;11.13;;;10.20;93.00;;;;;;5038785;28;20398;-65
2022/12/16 00:20:51;;;;;;;19.52;11.05;;;9.80;92.90;;;;;;5065339;28;20135;-65
2022/12/16 00:23:18;;;;;;;17.17;11.43;;;;;;;;;;5073194;28;20036;-66
2022/12/16 00:25:44;;;;;;;16.13;11.10;;;10.20;91.90;;;;;;5033624;28;20053;-66
2022/12/16 00:28:11;;;;;;;15.70;10.80;;;;;;;;;;5034092;28;20092;-65
2022/12/16 00:30:36;;;;;;;15.60;10.43;;;10.20;93.00;;;;;;5040642;28;20051;-65
2022/12/16 00:33:03;;;;;;;16.77;11.45;;;10.00;93.00;;;;;;5052327;28;20045;-65
2022/12/16 00:35:29;;;;;;;16.50;11.18;;;;;;;;;;5053412;28;20076;-66
2022/12/16 00:37:55;;;;;;;17.25;11.13;;;10.30;92.00;;;;;;5053084;28;20045;-65
2022/12/16 00:40:21;;;;;;;16.25;10.90;;;10.60;93.00;;;;;;5054638;28;20059;-65
2022/12/16 00:42:46;;;;;;;14.80;10.75;;;9.90;92.90;;;;;;5073357;28;20108;-67
2022/12/16 00:45:12;;;;;;;16.65;11.32;;;10.30;93.00;;;;;;5073371;28;20469;-66
2022/12/16 00:47:38;;;;;;;15.65;10.95;;;10.20;92.90;;;;;;5073316;28;20482;-66
2022/12/16 00:50:04;;;;;;;16.52;10.68;;;10.10;92.90;;;;;;5062707;28;20037;-66
2022/12/16 00:52:30;;;;;;;16.02;10.90;;;10.30;93.00;;;;;;5034239;28;20509;-67
2022/12/16 00:54:56;;;;;;;16.63;11.13;;;9.80;92.80;;;;;;5035661;28;20088;-66
2022/12/16 00:57:22;;;;;;;16.65;10.73;;;10.20;92.90;;;;;;5036934;28;20163;-66
2022/12/16 00:59:48;;;;;;;16.48;10.77;;;;;;;;;;5074560;28;20033;-66
2022/12/16 01:02:14;;;;;;;15.60;9.82;;;10.30;91.90;;;;;;5048050;28;20188;-66
2022/12/16 01:04:39;;;;;;;15.85;10.48;;;10.30;93.00;;;;;;5036754;28;20120;-66
2022/12/16 01:07:05;;;;;;;16.92;9.77;;;10.30;92.90;;;;;;5047759;28;20042;-66
2022/12/16 01:09:31;;;;;;;16.27;10.85;;;10.20;92.90;;;;;;5037191;28;20052;-66
2022/12/16 01:11:57;;;;;;;15.52;9.45;;;;;;;;;;5076845;28;20048;-66
2022/12/16 01:14:23;;;;;;;15.45;10.15;;;10.30;93.00;;;;;;5075891;28;20390;-66
2022/12/16 01:16:49;;;;;;;14.35;10.25;;;;;;;;;;5067289;28;20040;-66
2022/12/16 01:19:15;;;;;;;16.40;10.75;;;;;;;;;;5036915;28;20478;-66
2022/12/16 01:21:41;;;;;;;15.77;10.05;;;10.20;91.90;;;;;;5064747;28;20103;-66
2022/12/16 01:24:07;;;;;;;17.05;10.77;;;10.20;92.90;;;;;;5063602;28;20068;-66
2022/12/16 01:26:33;;;;;;;16.20;10.30;;;10.40;93.10;;;;;;5035726;28;20041;-66
2022/12/16 01:28:59;;;;;;;15.52;10.05;;;10.30;91.80;;;;;;5076679;28;20498;-66
2022/12/16 01:31:24;;;;;;;15.27;9.98;;;10.30;92.90;;;;;;5073739;28;20094;-66
2022/12/16 01:33:50;;;;;;;15.02;10.20;;;10.30;93.00;;;;;;5055197;28;20094;-66
2022/12/16 01:36:16;;;;;;;14.90;9.63;;;10.20;92.90;;;;;;5056827;28;20056;-65
2022/12/16 01:38:45;;;;;;;16.75;10.02;;;10.30;92.90;;;;;;5056997;28;20430;-65
2022/12/16 01:41:11;;;;;;;15.63;9.63;;;;;;;;;;5042133;28;20068;-65
2022/12/16 01:43:38;;;;;;;13.68;9.48;;;10.40;92.90;;;;;;5076049;28;20083;-66
2022/12/16 01:46:11;;;;;;;15.13;9.77;;;10.10;92.90;;;;;;5072892;28;20044;-66
2022/12/16 01:48:41;;;;;;;15.07;9.80;;;10.30;90.90;;;;;;5019887;28;20045;-66
2022/12/16 01:51:30;;;;;;;13.90;10.00;;;10.20;92.90;;;;;;5037080;28;20045;-67
2022/12/16 01:53:58;;;;;;;15.38;9.55;;;10.20;92.90;;;;;;5058307;28;20060;-66
2022/12/16 01:56:26;;;;;;;13.18;8.70;;;10.20;92.80;;;;;;5076135;28;20132;-66
2022/12/16 01:58:51;;;;;;;14.95;9.48;;;10.40;92.90;;;;;;5035980;28;20410;-65
2022/12/16 02:01:17;;;;;;;13.45;9.15;;;10.40;92.90;;;;;;5019600;28;20049;-66
2022/12/16 02:03:43;;;;;;;13.70;8.68;;;10.10;92.40;;;;;;5055708;28;20075;-65
2022/12/16 02:06:09;;;;;;;13.85;9.10;;;10.30;92.90;;;;;;5033486;28;20059;-65
2022/12/16 02:08:34;;;;;;;12.38;8.70;;;10.30;93.00;;;;;;5075978;28;20047;-66
2022/12/16 02:11:08;;;;;;;14.48;9.32;;;10.30;92.90;;;;;;5074691;28;20419;-66
2022/12/16 02:13:36;;;;;;;;;;;10.30;91.80;;;;;;5073742;28;20390;-66
2022/12/16 02:16:02;;;;;;;11.98;8.50;;;;;;;;;;5049853;28;19932;-65
2022/12/16 02:18:47;;;;;;;13.65;8.63;;;10.30;93.00;;;;;;5040672;28;20056;-65
2022/12/16 02:21:13;;;;;;;13.73;8.98;;;;;;;;;;5075593;28;20060;-66
2022/12/16 02:23:51;;;;;;;11.48;8.32;;;;;;;;;;5073159;28;20044;-65
2022/12/16 02:26:55;;;;;;;12.63;9.02;;;10.30;91.80;;;;;;5074998;28;20044;-66
2022/12/16 02:29:28;;;;;;;;;;;10.10;91.80;;;;;;4936841;28;20052;-66
2022/12/16 02:31:59;;;;;;;12.90;8.55;;;10.10;93.00;;;;;;4938691;29;20384;-67
2022/12/16 02:34:53;;;;;;;14.20;8.95;;;10.30;92.90;;;;;;4934895;29;20081;-65
2022/12/16 02:37:42;;;;;;;12.63;8.18;;;10.30;91.20;;;;;;4922594;29;20051;-65
2022/12/16 02:40:40;;;;;;;12.93;8.05;;;10.40;91.90;;;;;;4914016;29;20130;-65
2022/12/16 02:43:18;;;;;;;13.13;8.63;;;10.30;92.90;;;;;;4937949;28;20187;-66
2022/12/16 02:45:43;;;;;;;11.32;8.00;;;10.20;92.90;;;;;;4935761;29;20469;-66
2022/12/16 02:48:10;;;;;;;12.75;7.97;;;10.10;91.80;;;;;;4888575;29;20051;-66
2022/12/16 02:50:46;;;;;;;12.77;9.20;;;10.40;92.70;;;;;;4936327;29;20525;-65
2022/12/16 02:53:12;;;;;;;11.60;8.30;;;10.30;92.90;;;;;;4935468;28;20605;-66
2022/12/16 02:55:52;;;;;;;13.07;8.40;;;10.10;91.00;;;;;;4935428;29;20139;-66
2022/12/16 02:58:36;;;;;;;12.30;8.82;;;;;;;;;;4937768;28;20521;-65
2022/12/16 03:01:29;;;;;;;12.85;8.60;;;10.10;93.00;;;;;;4935182;29;20096;-65
2022/12/16 03:04:02;;;;;;;12.93;8.27;;;10.30;91.40;;;;;;5001923;28;20036;-66
2022/12/16 03:06:28;;;;;;;13.73;8.65;;;10.40;92.90;;;;;;5041417;28;20132;-66
2022/12/16 03:08:55;;;;;;;13.00;8.68;;;10.40;92.90;;;;;;5017233;28;20454;-66
2022/12/16 03:11:21;;;;;;;12.77;8.60;;;10.20;92.80;;;;;;5036916;28;20071;-67
2022/12/16 03:13:51;;;;;;;13.63;8.73;;;10.20;90.90;;;;;;5044402;28;20033;-66
2022/12/16 03:16:19;;;;;;;13.77;8.82;;;10.20;91.50;;;;;;5036219;28;20084;-66
2022/12/16 03:18:46;;;;;;;14.15;8.63;;;10.40;91.30;;;;;;5056237;28;20049;-66
2022/12/16 03:21:12;;;;;;;13.25;9.13;;;10.20;92.80;;;;;;5040846;28;20395;-66
2022/12/16 03:23:51;;;;;;;15.32;9.88;;;10.20;91.70;;;;;;5011259;28;20037;-67
2022/12/16 03:26:40;;;;;;;14.55;10.15;;;10.30;92.80;;;;;;5033037;28;20116;-66
2022/12/16 03:29:19;;;;;;;14.88;10.02;;;10.00;91.50;;;;;;5033225;28;20056;-65
2022/12/16 03:31:59;;;;;;;17.30;10.18;;;10.30;91.80;;;;;;5020130;28;20117;-66
2022/12/16 03:34:26;;;;;;;15.10;9.68;;;;;;;;;;5056206;28;20064;-66
2022/12/16 03:36:54;;;;;;;15.50;10.02;;;10.20;92.80;;;;;;5074226;28;20044;-66
2022/12/16 03:39:20;;;;;;;14.05;10.68;;;10.30;92.70;;;;;;5039028;28;20040;-66
2022/12/16 03:41:46;;;;;;;16.40;11.20;;;9.90;92.60;;;;;;5002325;28;20108;-66
2022/12/16 03:44:12;;;;;;;14.45;10.73;;;;;;;;;;5016233;28;20427;-66
2022/12/16 03:46:38;;;;;;;15.80;11.50;;;10.20;92.70;;;;;;5070386;28;20055;-66
2022/12/16 03:49:04;;;;;;;17.92;10.98;;;9.90;91.50;;;;;;5073685;28;20498;-66
2022/12/16 03:51:30;;;;;;;17.05;12.15;;;;;;;;;;5073623;28;20052;-65
2022/12/16 03:53:56;;;;;;;17.75;11.68;;;;;;;;;;5073498;28;20041;-66
2022/12/16 03:56:22;;;;;;;16.75;11.25;;;10.20;92.70;;;;;;5069854;28;20079;-65
2022/12/16 03:58:47;;;;;;;16.67;11.63;;;10.30;92.70;;;;;;5049421;28;20040;-65
2022/12/16 04:01:14;;;;;;;18.98;11.68;;;;;;;;;;5073580;28;20090;-65
2022/12/16 04:03:40;;;;;;;19.65;12.43;;;10.30;92.70;;;;;;5073798;28;20045;-66
2022/12/16 04:06:06;;;;;;;17.13;11.13;;;10.20;92.90;;;;;;5071182;28;20505;-65
2022/12/16 04:08:31;;;;;;;16.75;11.15;;;9.90;91.50;;;;;;5072380;28;20383;-65
2022/12/16 04:25:25;;;;;;;16.98;12.30;;;10.10;91.30;;;;;;5056768;28;20517;-67
2022/12/16 04:27:51;;;;;;;19.10;12.40;;;;;;;;;;5032310;28;20128;-66
2022/12/16 04:30:18;;;;;;;19.65;12.13;;;10.00;92.50;;;;;;5033039;28;20037;-67
